createdAt,value
2023-01-01T00:00:43.639Z,102121.88
2023-01-01T00:03:10.553Z,102124.44
2023-01-01T00:05:40.762Z,102128.03
2023-01-01T00:08:07.704Z,102134.66
2023-01-01T00:10:34.710Z,102141.38
2023-01-01T00:13:01.616Z,102135.72
2023-01-01T00:15:28.876Z,102139.94
2023-01-01T00:17:57.796Z,102135.53
2023-01-01T00:20:27.559Z,102140.25
2023-01-01T00:22:57.140Z,102136.88
2023-01-01T00:25:24.783Z,102145.72
2023-01-01T00:27:52.058Z,102154.91
2023-01-01T00:30:19.602Z,102147.44
2023-01-01T00:32:54.336Z,102151.78
2023-01-01T00:35:22.285Z,102155.59
2023-01-01T00:37:49.391Z,102142.97
2023-01-01T00:40:16.357Z,102144.31
2023-01-01T00:42:43.221Z,102149.53
2023-01-01T00:45:14.209Z,102150.22
2023-01-01T00:47:44.097Z,102137.91
2023-01-01T00:50:11.005Z,102134.69
2023-01-01T00:52:37.887Z,102138.19
2023-01-01T00:55:05.053Z,102147.47
2023-01-01T00:57:32.006Z,102141.34
2023-01-01T00:59:59.055Z,102139.50
2023-01-01T01:02:26.068Z,102137.53
2023-01-01T01:04:53.075Z,102142.94
2023-01-01T01:07:19.878Z,102138.13
2023-01-01T01:09:46.721Z,102135.63
2023-01-01T01:12:17.925Z,102135.94
2023-01-01T01:14:46.867Z,102129.97
2023-01-01T01:17:13.757Z,102122.59
2023-01-01T01:19:40.709Z,102131.97
2023-01-01T01:22:07.635Z,102112.22
2023-01-01T01:24:34.594Z,102109.63
2023-01-01T01:27:01.639Z,102105.78
2023-01-01T01:29:28.512Z,102097.56
2023-01-01T01:31:56.150Z,102103.41
2023-01-01T01:34:27.767Z,102110.84
2023-01-01T01:36:55.721Z,102116.16
2023-01-01T01:39:22.880Z,102112.78
2023-01-01T01:41:49.888Z,102117.91
2023-01-01T01:44:50.456Z,102109.47
2023-01-01T01:47:29.583Z,102112.84
2023-01-01T01:50:26.209Z,102099.44
2023-01-01T01:53:12.487Z,102097.75
2023-01-01T01:55:43.924Z,102096.28
2023-01-01T01:58:13.853Z,102102.84
2023-01-01T02:00:40.800Z,102104.75
2023-01-01T02:03:20.217Z,102107.06
2023-01-01T02:05:48.857Z,102110.13
2023-01-01T02:08:16.815Z,102112.88
2023-01-01T02:10:43.701Z,102110.50
2023-01-01T02:13:11.497Z,102114.47
2023-01-01T02:15:50.868Z,102111.25
2023-01-01T02:18:25.518Z,102098.56
2023-01-01T02:21:00.481Z,102102.13
2023-01-01T02:23:55.443Z,102108.44
2023-01-01T02:26:38.367Z,102098.97
2023-01-01T02:29:20.056Z,102094.66
2023-01-01T02:32:06.713Z,102098.31
2023-01-01T02:34:43.366Z,102099.59
2023-01-01T02:37:14.267Z,102094.72
2023-01-01T02:39:55.684Z,102103.34
2023-01-01T02:42:27.984Z,102095.63
2023-01-01T02:44:57.761Z,102096.88
2023-01-01T02:47:24.616Z,102101.09
2023-01-01T02:50:06.107Z,102103.59
2023-01-01T02:53:05.225Z,102103.03
2023-01-01T02:55:32.634Z,102105.78
2023-01-01T02:58:30.160Z,102110.91
2023-01-01T03:01:08.603Z,102097.97
2023-01-01T03:03:49.353Z,102100.72
2023-01-01T03:06:27.973Z,102103.09
2023-01-01T03:26:27.564Z,102084.31
2023-01-01T03:28:58.088Z,102087.97
2023-01-01T03:31:26.852Z,102092.56
2023-01-01T03:34:07.033Z,102088.72
2023-01-01T03:36:44.813Z,102100.94
2023-01-01T03:39:16.636Z,102097.25
2023-01-01T03:42:08.193Z,102096.53
2023-01-01T03:45:04.185Z,102095.69
2023-01-01T03:47:31.562Z,102094.53
2023-01-01T03:49:59.957Z,102100.66
2023-01-01T03:52:43.201Z,102098.16
2023-01-01T03:55:20.631Z,102108.19
2023-01-01T03:58:26.580Z,102113.81
2023-01-01T04:01:04.130Z,102106.22
2023-01-01T04:03:33.581Z,102105.44
2023-01-01T04:06:02.827Z,102106.78
2023-01-01T04:08:32.191Z,102117.53
2023-01-01T04:11:23.695Z,102110.91
2023-01-01T04:13:50.591Z,102111.88
2023-01-01T04:16:17.493Z,102115.69
2023-01-01T04:18:44.423Z,102120.50
2023-01-01T04:21:12.800Z,102130.69
2023-01-01T04:23:39.649Z,102123.63
2023-01-01T04:26:06.443Z,102129.44
2023-01-01T04:28:33.269Z,102120.94
2023-01-01T04:31:02.944Z,102130.94
2023-01-01T04:33:29.809Z,102128.16
2023-01-01T04:35:56.706Z,102126.91
2023-01-01T04:38:23.499Z,102125.41
2023-01-01T04:41:01.098Z,102125.00
2023-01-01T04:43:28.499Z,102127.38
2023-01-01T04:46:00.735Z,102136.41
2023-01-01T04:48:28.562Z,102137.50
2023-01-01T04:51:07.072Z,102143.75
2023-01-01T04:53:35.399Z,102145.88
2023-01-01T04:56:11.000Z,102140.38
2023-01-01T04:58:39.856Z,102137.06
2023-01-01T05:01:07.650Z,102139.38
2023-01-01T05:03:35.210Z,102138.88
2023-01-01T05:06:13.477Z,102139.84
2023-01-01T05:08:42.604Z,102138.19
2023-01-01T05:11:18.226Z,102134.81
2023-01-01T05:13:48.173Z,102135.69
2023-01-01T05:16:17.967Z,102145.41
2023-01-01T05:18:45.627Z,102146.28
2023-01-01T05:21:17.799Z,102140.09
2023-01-01T05:23:45.079Z,102146.47
2023-01-01T05:26:23.653Z,102147.97
2023-01-01T05:28:51.267Z,102141.44
2023-01-01T05:31:20.632Z,102143.22
2023-01-01T05:33:47.996Z,102140.81
2023-01-01T05:36:17.713Z,102141.88
2023-01-01T05:38:44.852Z,102142.56
2023-01-01T05:41:14.442Z,102142.94
2023-01-01T05:43:41.567Z,102146.78
2023-01-01T05:46:13.127Z,102143.75
2023-01-01T05:48:40.310Z,102149.72
2023-01-01T05:51:10.265Z,102145.00
2023-01-01T05:53:37.794Z,102147.53
2023-01-01T05:56:05.584Z,102146.81
2023-01-01T05:58:34.844Z,102148.72
2023-01-01T06:01:08.037Z,102144.09
2023-01-01T06:03:35.005Z,102143.16
2023-01-01T06:06:08.141Z,102148.81
2023-01-01T06:08:35.179Z,102154.66
2023-01-01T06:11:03.790Z,102154.91
2023-01-01T06:13:31.692Z,102152.31
2023-01-01T06:16:00.197Z,102149.84
2023-01-01T06:18:30.944Z,102162.13
2023-01-01T06:21:25.060Z,102163.19
2023-01-01T06:23:52.495Z,102157.94
2023-01-01T06:26:25.097Z,102164.22
2023-01-01T06:28:52.393Z,102162.06
2023-01-01T06:31:21.339Z,102172.50
2023-01-01T06:33:49.512Z,102166.31
2023-01-01T06:36:18.341Z,102163.84
2023-01-01T06:38:48.040Z,102160.50
2023-01-01T06:41:17.652Z,102171.00
2023-01-01T06:43:45.449Z,102166.09
2023-01-01T06:46:18.203Z,102170.47
2023-01-01T06:48:46.240Z,102164.38
2023-01-01T06:51:15.995Z,102170.09
2023-01-01T06:53:42.980Z,102175.38
2023-01-01T06:56:10.432Z,102166.06
2023-01-01T06:58:37.440Z,102172.88
2023-01-01T07:01:08.637Z,102170.38
2023-01-01T07:03:37.073Z,102177.63
2023-01-01T07:06:04.805Z,102168.75
2023-01-01T07:08:31.894Z,102172.19
2023-01-01T07:10:58.921Z,102176.69
2023-01-01T07:13:26.560Z,102185.63
2023-01-01T07:15:54.118Z,102182.59
2023-01-01T07:18:22.100Z,102179.47
2023-01-01T07:20:55.585Z,102178.97
2023-01-01T07:23:23.128Z,102180.75
2023-01-01T07:25:51.239Z,102181.66
2023-01-01T07:28:18.168Z,102177.47
2023-01-01T07:30:46.656Z,102174.50
2023-01-01T07:33:15.894Z,102177.28
2023-01-01T07:35:44.932Z,102182.44
2023-01-01T07:38:12.642Z,102169.19
2023-01-01T07:40:40.392Z,102177.09
2023-01-01T07:43:07.841Z,102185.22
2023-01-01T07:45:35.194Z,102181.53
2023-01-01T07:48:02.939Z,102185.50
2023-01-01T07:50:32.991Z,102186.41
2023-01-01T07:52:59.921Z,102184.81
2023-01-01T07:55:27.202Z,102185.56
2023-01-01T07:57:54.042Z,102184.16
2023-01-01T08:00:21.913Z,102196.75
2023-01-01T08:02:49.199Z,102192.63
2023-01-01T08:05:19.892Z,102191.22
2023-01-01T08:07:51.452Z,102193.38
2023-01-01T08:10:22.816Z,102187.53
2023-01-01T08:12:49.706Z,102199.28
2023-01-01T08:15:16.934Z,102199.09
2023-01-01T08:17:46.737Z,102189.78
2023-01-01T08:20:14.577Z,102191.91
2023-01-01T08:22:41.588Z,102191.38
2023-01-01T08:25:08.968Z,102190.56
2023-01-01T08:27:35.844Z,102196.91
2023-01-01T08:30:02.796Z,102198.44
2023-01-01T08:32:29.605Z,102188.91
2023-01-01T08:34:56.437Z,102194.44
2023-01-01T08:37:24.072Z,102196.75
2023-01-01T08:39:54.349Z,102194.63
2023-01-01T08:42:21.257Z,102193.66
2023-01-01T08:44:48.249Z,102200.03
2023-01-01T08:47:24.561Z,102200.53
2023-01-01T08:49:53.088Z,102197.13
2023-01-01T08:52:20.608Z,102199.16
2023-01-01T08:54:47.496Z,102199.63
2023-01-01T08:57:14.439Z,102189.50
2023-01-01T08:59:41.263Z,102192.06
2023-01-01T09:02:12.893Z,102195.31
2023-01-01T09:04:40.013Z,102194.50
2023-01-01T09:07:06.908Z,102187.28
2023-01-01T09:09:33.778Z,102188.94
2023-01-01T09:12:06.166Z,102185.56
2023-01-01T09:14:34.485Z,102190.19
2023-01-01T09:17:01.745Z,102180.91
2023-01-01T09:19:28.707Z,102184.63
2023-01-01T09:21:55.858Z,102182.13
2023-01-01T09:24:22.884Z,102179.44
2023-01-01T09:26:50.293Z,102176.22
2023-01-01T09:29:18.831Z,102170.84
2023-01-01T09:31:45.952Z,102165.94
2023-01-01T09:34:13.005Z,102167.56
2023-01-01T09:36:39.880Z,102159.97
2023-01-01T09:39:06.866Z,102155.50
2023-01-01T09:41:48.698Z,102158.38
2023-01-01T09:44:28.160Z,102159.63
2023-01-01T09:47:00.559Z,102156.56
2023-01-01T09:49:36.365Z,102161.91
2023-01-01T09:52:05.554Z,102158.03
2023-01-01T09:54:37.918Z,102147.69
2023-01-01T09:57:16.277Z,102155.31
2023-01-01T09:59:46.680Z,102158.50
2023-01-01T10:02:53.609Z,102153.47
2023-01-01T10:05:50.087Z,102140.53
2023-01-01T10:08:31.958Z,102140.75
2023-01-01T10:11:11.074Z,102137.25
2023-01-01T10:13:46.139Z,102134.72
2023-01-01T10:16:15.252Z,102132.03
2023-01-01T10:18:52.490Z,102134.03
2023-01-01T10:21:27.771Z,102125.63
2023-01-01T10:24:17.508Z,102133.31
2023-01-01T10:26:44.493Z,102125.66
2023-01-01T10:29:29.021Z,102118.34
2023-01-01T10:31:57.914Z,102123.78
2023-01-01T10:34:32.288Z,102108.97
2023-01-01T10:37:00.972Z,102111.03
2023-01-01T10:39:28.536Z,102106.72
2023-01-01T10:41:58.238Z,102106.66
2023-01-01T10:44:34.228Z,102103.38
2023-01-01T10:47:25.339Z,102103.66
2023-01-01T10:49:59.866Z,102101.63
2023-01-01T10:52:31.815Z,102088.25
2023-01-01T10:55:00.103Z,102089.44
2023-01-01T10:57:27.047Z,102088.28
2023-01-01T10:59:54.853Z,102086.13
2023-01-01T11:02:28.507Z,102091.47
2023-01-01T11:05:21.918Z,102070.38
2023-01-01T11:07:49.987Z,102076.44
2023-01-01T11:10:22.715Z,102079.38
2023-01-01T11:13:07.048Z,102079.00
2023-01-01T11:15:37.703Z,102080.56
2023-01-01T11:18:06.888Z,102077.53
2023-01-01T11:20:34.737Z,102084.31
2023-01-01T11:23:19.617Z,102091.63
2023-01-01T11:26:06.708Z,102085.41
2023-01-01T11:28:35.717Z,102090.47
2023-01-01T11:31:07.592Z,102088.56
2023-01-01T11:33:40.324Z,102083.84
2023-01-01T11:36:07.762Z,102081.66
2023-01-01T11:38:34.824Z,102083.47
2023-01-01T11:41:05.930Z,102085.31
2023-01-01T11:43:40.500Z,102079.03
2023-01-01T11:46:11.074Z,102080.78
2023-01-01T11:48:42.868Z,102079.50
2023-01-01T11:51:28.208Z,102089.19
2023-01-01T11:54:10.058Z,102077.31
2023-01-01T11:56:37.551Z,102082.03
2023-01-01T11:59:23.758Z,102082.22
2023-01-01T12:02:03.353Z,102083.34
2023-01-01T12:04:42.458Z,102075.00
2023-01-01T12:07:18.242Z,102084.69
2023-01-01T12:10:06.944Z,102078.72
2023-01-01T12:12:38.846Z,102081.09
2023-01-01T12:15:18.755Z,102082.22
2023-01-01T12:18:06.479Z,102077.13
2023-01-01T12:20:39.205Z,102069.34
2023-01-01T12:23:09.216Z,102074.03
2023-01-01T12:25:43.368Z,102068.41
2023-01-01T12:28:27.009Z,102080.19
2023-01-01T12:31:03.119Z,102076.50
2023-01-01T12:33:30.136Z,102063.13
2023-01-01T12:36:09.389Z,102067.59
2023-01-01T12:38:48.517Z,102064.31
2023-01-01T12:41:44.401Z,102072.69
2023-01-01T12:44:33.277Z,102069.31
2023-01-01T12:47:06.155Z,102072.53
2023-01-01T12:49:42.124Z,102075.84
2023-01-01T12:52:34.199Z,102075.25
2023-01-01T12:55:28.524Z,102078.66
2023-01-01T12:58:15.705Z,102074.72
2023-01-01T13:00:52.051Z,102080.66
2023-01-01T13:03:24.345Z,102080.63
2023-01-01T13:05:55.152Z,102080.44
2023-01-01T13:08:22.704Z,102078.59
2023-01-01T13:10:53.276Z,102076.91
2023-01-01T13:13:20.610Z,102083.81
2023-01-01T13:15:55.766Z,102078.72
2023-01-01T13:18:26.748Z,102077.91
2023-01-01T13:20:53.619Z,102077.00
2023-01-01T13:23:34.805Z,102081.25
2023-01-01T13:26:21.097Z,102081.09
2023-01-01T13:29:00.839Z,102073.00
2023-01-01T13:31:43.219Z,102074.00
2023-01-01T13:34:32.446Z,102078.72
2023-01-01T13:37:29.639Z,102077.19
2023-01-01T13:40:02.196Z,102080.47
2023-01-01T13:42:52.576Z,102074.63
2023-01-01T13:48:37.825Z,102080.81
2023-01-01T13:51:54.962Z,102080.16
2023-01-01T13:54:33.693Z,102081.53
2023-01-01T13:57:09.657Z,102087.63
2023-01-01T14:00:10.206Z,102077.66
2023-01-01T14:02:47.924Z,102077.16
2023-01-01T14:05:26.163Z,102078.81
2023-01-01T14:07:55.488Z,102079.00
2023-01-01T14:10:37.791Z,102075.00
2023-01-01T14:13:08.585Z,102084.78
2023-01-01T14:15:52.629Z,102072.75
2023-01-01T14:18:22.197Z,102075.09
2023-01-01T14:20:53.910Z,102073.66
2023-01-01T14:23:40.487Z,102082.19
2023-01-01T14:26:12.369Z,102067.78
2023-01-01T14:28:40.353Z,102070.47
2023-01-01T14:31:16.852Z,102072.94
2023-01-01T14:33:44.765Z,102074.59
2023-01-01T14:36:21.969Z,102078.91
2023-01-01T14:38:51.502Z,102068.91
2023-01-01T14:41:36.057Z,102072.63
2023-01-01T14:44:20.112Z,102069.25
2023-01-01T14:46:52.810Z,102076.34
2023-01-01T14:49:26.743Z,102080.16
2023-01-01T14:52:27.887Z,102078.59
2023-01-01T14:54:58.614Z,102078.97
2023-01-01T14:57:33.248Z,102071.63
2023-01-01T15:00:01.058Z,102078.41
2023-01-01T15:02:31.894Z,102071.16
2023-01-01T15:05:15.947Z,102082.50
2023-01-01T15:07:42.812Z,102079.53
2023-01-01T15:10:13.064Z,102080.81
2023-01-01T15:28:21.016Z,102092.16
2023-01-01T15:30:57.869Z,102098.66
2023-01-01T15:33:25.245Z,102104.56
2023-01-01T15:35:54.019Z,102082.56
2023-01-01T15:38:31.185Z,102089.75
2023-01-01T15:40:58.162Z,102092.25
2023-01-01T15:43:27.164Z,102097.63
2023-01-01T15:46:18.567Z,102089.47
2023-01-01T15:48:51.174Z,102083.03
2023-01-01T15:51:26.666Z,102089.69
2023-01-01T15:54:05.610Z,102094.53
2023-01-01T15:56:39.243Z,102090.38
2023-01-01T15:59:13.623Z,102089.84
2023-01-01T16:01:42.073Z,102095.28
2023-01-01T16:04:10.668Z,102095.97
2023-01-01T16:06:50.157Z,102094.44
2023-01-01T16:09:18.707Z,102098.53
2023-01-01T16:11:50.711Z,102098.31
2023-01-01T16:14:18.019Z,102102.41
2023-01-01T16:16:51.835Z,102099.59
2023-01-01T16:19:19.780Z,102102.34
2023-01-01T16:21:46.704Z,102090.50
2023-01-01T16:24:16.878Z,102091.38
2023-01-01T16:26:46.615Z,102098.75
2023-01-01T16:29:14.068Z,102101.41
2023-01-01T16:31:41.938Z,102110.16
2023-01-01T16:34:14.518Z,102109.97
2023-01-01T16:36:42.887Z,102106.97
2023-01-01T16:39:10.010Z,102104.81
2023-01-01T16:41:39.609Z,102109.59
2023-01-01T16:44:06.580Z,102109.59
2023-01-01T16:46:33.708Z,102110.47
2023-01-01T16:49:00.865Z,102111.03
2023-01-01T16:51:30.136Z,102120.47
2023-01-01T16:53:57.543Z,102124.91
2023-01-01T16:56:24.497Z,102131.06
2023-01-01T16:58:55.239Z,102125.72
2023-01-01T17:01:27.262Z,102127.28
2023-01-01T17:03:54.373Z,102118.69
2023-01-01T17:06:21.322Z,102129.84
2023-01-01T17:08:48.217Z,102139.22
2023-01-01T17:11:17.205Z,102132.91
2023-01-01T17:13:48.242Z,102143.72
2023-01-01T17:16:21.381Z,102140.44
2023-01-01T17:21:40.492Z,102141.94
2023-01-01T17:24:08.005Z,102145.81
2023-01-01T17:26:34.886Z,102144.41
2023-01-01T17:29:03.110Z,102142.09
2023-01-01T17:31:30.241Z,102149.00
2023-01-01T17:33:57.568Z,102140.44
2023-01-01T17:36:27.429Z,102149.59
2023-01-01T17:38:54.933Z,102148.88
2023-01-01T17:41:22.815Z,102149.66
2023-01-01T17:43:51.689Z,102148.56
2023-01-01T17:46:31.091Z,102150.44
2023-01-01T17:48:58.221Z,102161.50
2023-01-01T17:51:25.809Z,102156.25
2023-01-01T17:53:53.969Z,102159.31
2023-01-01T17:56:22.360Z,102148.81
2023-01-01T17:58:52.040Z,102154.97
2023-01-01T18:01:22.239Z,102148.09
2023-01-01T18:03:51.094Z,102149.19
2023-01-01T18:06:18.181Z,102154.44
2023-01-01T18:08:45.977Z,102148.94
2023-01-01T18:11:12.944Z,102154.78
2023-01-01T18:13:39.908Z,102149.25
2023-01-01T18:16:09.849Z,102149.53
2023-01-01T18:18:40.325Z,102153.69
2023-01-01T18:21:14.603Z,102153.63
2023-01-01T18:23:41.985Z,102152.59
2023-01-01T18:26:10.966Z,102149.56
2023-01-01T18:28:39.279Z,102152.88
2023-01-01T18:31:14.307Z,102148.41
2023-01-01T18:33:42.020Z,102155.28
2023-01-01T18:36:14.603Z,102145.91
2023-01-01T18:38:45.151Z,102152.81
2023-01-01T18:41:27.859Z,102154.22
2023-01-01T18:43:56.136Z,102148.16
2023-01-01T18:46:23.622Z,102149.84
2023-01-01T18:48:57.022Z,102150.69
2023-01-01T18:51:26.523Z,102140.44
2023-01-01T18:53:58.892Z,102148.72
2023-01-01T18:56:25.882Z,102142.19
2023-01-01T18:58:56.213Z,102149.38
2023-01-01T19:01:24.157Z,102140.56
2023-01-01T19:04:02.057Z,102144.97
2023-01-01T19:06:32.203Z,102149.16
2023-01-01T19:09:23.410Z,102144.16
2023-01-01T19:11:54.427Z,102144.41
2023-01-01T19:14:24.663Z,102138.63
2023-01-01T19:16:56.494Z,102137.03
2023-01-01T19:19:33.808Z,102143.63
2023-01-01T19:22:16.050Z,102146.97
2023-01-01T19:24:44.380Z,102145.03
2023-01-01T19:27:18.527Z,102140.63
2023-01-01T19:29:48.099Z,102139.53
2023-01-01T19:32:15.814Z,102139.25
2023-01-01T19:34:42.739Z,102134.00
2023-01-01T19:37:10.640Z,102143.66
2023-01-01T19:39:38.833Z,102140.66
2023-01-01T19:42:07.241Z,102147.81
2023-01-01T19:44:35.609Z,102145.06
2023-01-01T19:47:04.965Z,102146.41
2023-01-01T19:49:32.249Z,102140.38
2023-01-01T19:51:59.297Z,102143.66
2023-01-01T19:54:26.573Z,102140.38
2023-01-01T19:56:53.525Z,102141.19
2023-01-01T19:59:20.508Z,102134.59
2023-01-01T20:02:03.381Z,102148.63
2023-01-01T20:04:34.485Z,102145.88
2023-01-01T20:07:01.326Z,102142.84
2023-01-01T20:09:28.281Z,102145.59
2023-01-01T20:11:55.122Z,102137.06
2023-01-01T20:14:22.102Z,102145.31
2023-01-01T20:16:51.023Z,102137.88
2023-01-01T20:19:17.998Z,102135.69
2023-01-01T20:22:03.575Z,102133.47
2023-01-01T20:24:30.673Z,102136.50
2023-01-01T20:26:57.582Z,102147.25
2023-01-01T20:29:24.636Z,102145.31
2023-01-01T20:31:53.499Z,102140.94
2023-01-01T20:34:21.650Z,102139.28
2023-01-01T20:37:07.571Z,102146.41
2023-01-01T20:39:37.946Z,102145.59
2023-01-01T20:42:04.988Z,102144.22
2023-01-01T20:44:32.340Z,102154.69
2023-01-01T20:46:59.284Z,102148.63
2023-01-01T20:49:26.211Z,102146.16
2023-01-01T20:51:53.459Z,102153.03
2023-01-01T20:54:21.942Z,102148.38
2023-01-01T20:56:48.869Z,102154.16
2023-01-01T20:59:34.854Z,102146.97
2023-01-01T21:02:05.045Z,102141.16
2023-01-01T21:04:32.221Z,102138.69
2023-01-01T21:06:59.071Z,102133.47
2023-01-01T21:09:26.049Z,102148.34
2023-01-01T21:11:53.250Z,102146.94
2023-01-01T21:14:24.132Z,102143.13
2023-01-01T21:16:52.042Z,102139.28
2023-01-01T21:19:26.102Z,102142.56
2023-01-01T21:21:55.690Z,102144.22
2023-01-01T21:24:34.762Z,102147.50
2023-01-01T21:27:18.448Z,102143.97
2023-01-01T21:29:48.615Z,102141.44
2023-01-01T21:32:24.791Z,102140.09
2023-01-01T21:34:53.711Z,102138.16
2023-01-01T21:37:44.534Z,102140.34
2023-01-01T21:40:39.585Z,102138.69
2023-01-01T21:43:10.841Z,102145.31
2023-01-01T21:45:42.682Z,102133.19
2023-01-01T21:49:02.077Z,102130.13
2023-01-01T21:51:42.295Z,102137.03
2023-01-01T21:54:12.312Z,102126.31
2023-01-01T21:56:43.322Z,102124.06
2023-01-01T21:59:28.854Z,102129.31
2023-01-01T22:02:07.836Z,102126.81
2023-01-01T22:04:39.763Z,102127.13
2023-01-01T22:10:16.584Z,102128.50
2023-01-01T22:12:43.763Z,102123.00
2023-01-01T22:15:25.997Z,102127.94
2023-01-01T22:18:11.836Z,102123.00
2023-01-01T22:20:42.236Z,102133.75
2023-01-01T22:23:20.406Z,102129.59
2023-01-01T22:25:47.896Z,102126.03
2023-01-01T22:28:22.630Z,102129.31
2023-01-01T22:30:54.083Z,102119.16
2023-01-01T22:33:30.235Z,102124.63
2023-01-01T22:35:58.005Z,102109.75
2023-01-01T22:38:34.119Z,102110.56
2023-01-01T22:41:01.518Z,102114.16
2023-01-01T22:43:34.507Z,102109.44
2023-01-01T22:46:22.110Z,102110.56
2023-01-01T22:48:52.766Z,102110.00
2023-01-01T22:51:28.125Z,102113.03
2023-01-01T22:53:54.955Z,102108.28
2023-01-01T22:56:21.975Z,102104.19
2023-01-01T22:58:54.751Z,102102.31
2023-01-01T23:01:23.595Z,102104.50
2023-01-01T23:03:50.713Z,102106.16
2023-01-01T23:06:18.725Z,102101.69
2023-01-01T23:08:45.876Z,102096.50
2023-01-01T23:11:13.209Z,102096.75
2023-01-01T23:13:58.627Z,102102.25
2023-01-01T23:16:25.574Z,102101.09
2023-01-01T23:18:52.524Z,102104.44
2023-01-01T23:21:26.683Z,102102.50
2023-01-01T23:23:56.478Z,102099.25
2023-01-01T23:26:24.957Z,102101.13
2023-01-01T23:28:53.565Z,102095.59
2023-01-01T23:31:25.216Z,102104.72
2023-01-01T23:33:53.982Z,102101.66
2023-01-01T23:36:21.094Z,102101.09
2023-01-01T23:38:48.080Z,102105.25
2023-01-01T23:41:14.980Z,102100.00
2023-01-01T23:43:43.870Z,102098.63
2023-01-01T23:46:13.458Z,102097.47
2023-01-01T23:48:44.023Z,102099.91
2023-01-01T23:51:12.008Z,102103.16
2023-01-01T23:53:38.860Z,102105.00
2023-01-01T23:56:06.053Z,102098.38
2023-01-01T23:58:33.130Z,102104.38
